Time;durP1;ratioP1;P1;durP2;ratioP2;P2;SDS_P1;SDS_P2;PMS_P1;PMS_P2;Temp;Humidity;BMP_temperature;BMP_pressure;BME280_temperature;BME280_humidity;BME280_pressure;Samples;Min_cycle;Max_cycle;Signal;HPM_P1;HPM_P2
2023/09/14 00:00:43;;;;;;;2.25;0.88;;;17.70;74.30;;;;;;5068496;28;20032;-70
2023/09/14 00:03:08;;;;;;;0.52;0.52;;;17.70;74.30;;;;;;5044489;28;20048;-70
2023/09/14 00:05:42;;;;;;;1.42;0.98;;;17.70;74.30;;;;;;5062730;28;20045;-70
2023/09/14 00:08:08;;;;;;;1.27;1.10;;;17.70;74.20;;;;;;5047914;28;20059;-71
2023/09/14 00:10:34;;;;;;;0.85;0.75;;;17.80;74.20;;;;;;5065294;28;20395;-71
2023/09/14 00:13:00;;;;;;;0.47;0.47;;;17.70;74.30;;;;;;5062991;28;20029;-70
2023/09/14 00:15:26;;;;;;;7.70;1.23;;;17.70;74.20;;;;;;5067860;28;20500;-71
2023/09/14 00:17:52;;;;;;;3.35;0.77;;;17.80;74.40;;;;;;5066637;28;20025;-71
2023/09/14 00:20:24;;;;;;;2.40;0.60;;;17.70;74.40;;;;;;5067714;28;20383;-70
2023/09/14 00:22:50;;;;;;;2.58;0.70;;;17.80;74.60;;;;;;5066429;28;20127;-71
2023/09/14 00:25:17;;;;;;;0.50;0.50;;;17.70;74.60;;;;;;5067158;28;20033;-70
2023/09/14 00:27:43;;;;;;;0.85;0.55;;;17.80;74.60;;;;;;5066731;28;20523;-72
2023/09/14 00:30:09;;;;;;;1.85;0.77;;;17.80;74.50;;;;;;5067399;28;20031;-70
2023/09/14 00:32:39;;;;;;;2.28;0.70;;;17.80;74.60;;;;;;5044819;28;20063;-68
2023/09/14 00:35:07;;;;;;;0.80;0.80;;;17.80;74.60;;;;;;5050111;28;20430;-68
2023/09/14 00:37:33;;;;;;;0.73;0.50;;;17.80;74.70;;;;;;5045161;28;20033;-68
2023/09/14 00:39:58;;;;;;;0.73;0.70;;;17.80;74.80;;;;;;5067188;28;20530;-69
2023/09/14 00:42:24;;;;;;;0.73;0.55;;;17.80;74.90;;;;;;5063584;28;20090;-68
2023/09/14 00:44:50;;;;;;;2.28;0.68;;;17.80;75.00;;;;;;5068343;28;20033;-68
2023/09/14 00:47:16;;;;;;;3.00;0.52;;;17.80;75.00;;;;;;5063788;28;20087;-67
2023/09/14 00:49:42;;;;;;;2.50;0.80;;;17.80;74.90;;;;;;5052878;28;20469;-68
2023/09/14 00:52:10;;;;;;;2.72;0.73;;;17.80;74.90;;;;;;5065893;28;20375;-68
2023/09/14 00:54:37;;;;;;;0.40;0.40;;;17.80;74.90;;;;;;5063981;28;20032;-68
2023/09/14 00:57:04;;;;;;;2.90;0.70;;;17.80;74.80;;;;;;5056951;28;20036;-71
2023/09/14 00:59:31;;;;;;;0.98;0.85;;;17.80;74.80;;;;;;5059548;28;20544;-67
2023/09/14 01:01:57;;;;;;;1.55;0.73;;;17.80;74.70;;;;;;5056701;28;20028;-68
2023/09/14 01:04:22;;;;;;;0.68;0.50;;;17.80;74.60;;;;;;5069500;28;20081;-67
2023/09/14 01:06:49;;;;;;;3.65;0.50;;;17.80;74.50;;;;;;5065247;28;20301;-68
2023/09/14 01:09:15;;;;;;;1.73;0.90;;;17.80;74.40;;;;;;5067160;28;20036;-68
2023/09/14 01:11:41;;;;;;;2.13;0.68;;;17.80;74.30;;;;;;5066570;28;20116;-68
2023/09/14 01:14:40;;;;;;;1.88;0.73;;;17.80;74.30;;;;;;5064050;28;20024;-71
2023/09/14 01:17:34;;;;;;;1.67;0.50;;;17.80;74.30;;;;;;5064024;28;20535;-71
2023/09/14 01:20:30;;;;;;;1.45;1.35;;;17.80;74.40;;;;;;5063230;28;20024;-68
2023/09/14 01:23:23;;;;;;;0.73;0.40;;;17.80;74.20;;;;;;5063353;28;20045;-68
2023/09/14 01:25:49;;;;;;;;;;;17.80;74.10;;;;;;5066006;28;20085;-68
2023/09/14 01:28:15;;;;;;;3.63;0.60;;;17.80;74.10;;;;;;5065852;28;20003;-69
2023/09/14 01:30:44;;;;;;;1.08;0.70;;;17.70;74.00;;;;;;5066925;28;20434;-73
2023/09/14 01:33:14;;;;;;;3.30;0.93;;;17.70;73.90;;;;;;5063224;28;20035;-71
2023/09/14 01:35:54;;;;;;;2.03;0.60;;;17.80;73.80;;;;;;5062570;28;20040;-71
2023/09/14 01:38:21;;;;;;;0.52;0.52;;;17.80;73.80;;;;;;5044867;28;20033;-71
2023/09/14 01:40:48;;;;;;;3.03;1.02;;;17.80;73.80;;;;;;5060234;28;20410;-70
2023/09/14 01:43:15;;;;;;;3.53;0.80;;;17.80;73.80;;;;;;5059077;28;20092;-71
2023/09/14 01:45:42;;;;;;;1.20;0.50;;;17.80;73.70;;;;;;5040963;28;20029;-72
2023/09/14 01:48:13;;;;;;;0.95;0.50;;;17.80;73.70;;;;;;5061037;28;20107;-71
2023/09/14 01:50:38;;;;;;;0.82;0.50;;;17.80;73.70;;;;;;5067511;28;20423;-68
2023/09/14 01:53:04;;;;;;;2.33;0.63;;;17.70;73.80;;;;;;5065480;28;20115;-69
2023/09/14 01:55:30;;;;;;;1.85;0.40;;;17.70;73.90;;;;;;5065163;28;20024;-69
2023/09/14 01:57:55;;;;;;;3.40;0.75;;;17.70;73.90;;;;;;5049193;28;20498;-69
2023/09/14 02:00:21;;;;;;;4.88;1.15;;;17.70;74.10;;;;;;5063118;28;20025;-68
2023/09/14 02:02:47;;;;;;;1.20;0.40;;;17.70;74.10;;;;;;5064231;28;20044;-71
2023/09/14 02:05:13;;;;;;;0.60;0.60;;;17.60;74.10;;;;;;5063970;28;20384;-71
2023/09/14 02:07:38;;;;;;;4.07;0.90;;;17.60;74.10;;;;;;5064170;28;20033;-71
2023/09/14 02:10:04;;;;;;;0.50;0.50;;;17.60;74.10;;;;;;5047867;28;20035;-71
2023/09/14 02:12:30;;;;;;;0.70;0.65;;;17.50;74.10;;;;;;5042499;28;20518;-71
2023/09/14 02:14:56;;;;;;;2.83;0.73;;;17.50;74.10;;;;;;5062689;28;20043;-71
2023/09/14 02:17:21;;;;;;;0.40;0.40;;;17.50;74.30;;;;;;5061425;28;20064;-71
2023/09/14 02:19:47;;;;;;;0.50;0.50;;;17.40;74.30;;;;;;5064594;28;20027;-72
2023/09/14 02:22:13;;;;;;;0.40;0.40;;;17.40;74.40;;;;;;5046284;28;20492;-71
2023/09/14 02:24:38;;;;;;;0.55;0.55;;;17.30;74.50;;;;;;5063697;28;20404;-71
2023/09/14 02:27:04;;;;;;;0.70;0.40;;;17.30;74.70;;;;;;5064132;28;20589;-68
2023/09/14 02:29:30;;;;;;;0.30;0.30;;;17.20;74.80;;;;;;5063973;28;20368;-68
2023/09/14 02:31:57;;;;;;;3.42;1.10;;;17.20;74.80;;;;;;5047373;28;20415;-69
2023/09/14 02:34:22;;;;;;;1.20;0.65;;;17.10;74.70;;;;;;5032881;28;20029;-68
2023/09/14 02:36:48;;;;;;;1.70;0.57;;;17.10;74.70;;;;;;5045276;28;20102;-69
2023/09/14 02:39:13;;;;;;;1.13;0.60;;;17.00;74.80;;;;;;5062089;28;20021;-68
2023/09/14 02:41:39;;;;;;;0.82;0.82;;;17.00;74.80;;;;;;5065837;28;20033;-68
2023/09/14 02:44:05;;;;;;;0.60;0.40;;;16.90;74.70;;;;;;5063695;28;20025;-69
2023/09/14 02:46:30;;;;;;;0.70;0.70;;;16.90;74.70;;;;;;5048190;28;20036;-69
2023/09/14 02:48:56;;;;;;;2.45;0.85;;;16.80;74.70;;;;;;5065738;28;20541;-68
2023/09/14 02:51:22;;;;;;;0.85;0.60;;;16.80;74.70;;;;;;5065496;28;20395;-69
2023/09/14 02:53:47;;;;;;;1.10;0.70;;;16.80;74.70;;;;;;5046490;28;20574;-69
2023/09/14 02:56:13;;;;;;;3.28;1.27;;;16.70;74.70;;;;;;5067717;28;20614;-69
2023/09/14 02:58:39;;;;;;;1.15;0.40;;;16.60;74.70;;;;;;5063158;28;20043;-68
2023/09/14 03:01:09;;;;;;;0.60;0.35;;;16.60;74.70;;;;;;5063126;28;20037;-68
2023/09/14 03:03:39;;;;;;;0.50;0.50;;;16.60;74.70;;;;;;5062200;28;20148;-68
2023/09/14 03:06:08;;;;;;;2.35;0.90;;;16.50;74.70;;;;;;5062825;28;20028;-68
2023/09/14 03:08:33;;;;;;;1.30;0.45;;;16.50;74.70;;;;;;5065393;28;20036;-68
2023/09/14 03:11:00;;;;;;;0.55;0.40;;;16.40;74.70;;;;;;5065220;28;20025;-68
2023/09/14 03:13:26;;;;;;;0.45;0.40;;;16.40;74.70;;;;;;5068527;28;20035;-68
2023/09/14 03:15:54;;;;;;;0.43;0.30;;;16.40;74.70;;;;;;5068912;28;20025;-68
2023/09/14 03:18:20;;;;;;;2.70;0.68;;;16.30;74.70;;;;;;5067731;28;20025;-68
2023/09/14 03:20:46;;;;;;;2.47;0.68;;;16.30;74.80;;;;;;5066008;28;20066;-68
2023/09/14 03:23:11;;;;;;;0.98;0.73;;;16.20;74.80;;;;;;5066184;28;20411;-68
2023/09/14 03:25:37;;;;;;;0.38;0.30;;;16.20;74.90;;;;;;5059337;28;20082;-68
2023/09/14 03:28:03;;;;;;;0.75;0.75;;;16.10;74.80;;;;;;5043361;28;20170;-68
2023/09/14 03:30:29;;;;;;;2.85;0.85;;;16.10;74.80;;;;;;5062957;28;20115;-68
2023/09/14 03:32:54;;;;;;;0.55;0.55;;;16.00;74.70;;;;;;5067292;28;20033;-68
2023/09/14 03:35:20;;;;;;;0.60;0.60;;;16.00;74.80;;;;;;5065451;28;20016;-68
2023/09/14 03:37:46;;;;;;;0.65;0.65;;;15.90;74.80;;;;;;5068087;28;20066;-68
2023/09/14 03:40:11;;;;;;;3.13;1.30;;;15.90;74.90;;;;;;5067745;28;20024;-68
2023/09/14 03:42:37;;;;;;;1.08;0.50;;;15.90;74.90;;;;;;5066599;28;20031;-71
2023/09/14 03:45:04;;;;;;;2.63;0.98;;;15.80;74.90;;;;;;5068369;28;20021;-71
2023/09/14 03:47:30;;;;;;;0.77;0.50;;;15.80;74.90;;;;;;5049983;28;20483;-71
2023/09/14 03:49:55;;;;;;;2.75;0.50;;;15.70;74.80;;;;;;5063394;28;20036;-71
2023/09/14 03:52:21;;;;;;;3.03;0.80;;;15.70;74.80;;;;;;5065292;28;20028;-71
2023/09/14 03:54:46;;;;;;;1.08;0.60;;;15.70;74.90;;;;;;5066421;28;20665;-71
2023/09/14 03:57:15;;;;;;;4.18;1.13;;;15.60;74.80;;;;;;5053978;28;20448;-71
2023/09/14 03:59:42;;;;;;;1.10;1.00;;;15.60;74.90;;;;;;5037823;28;20025;-71
2023/09/14 04:02:09;;;;;;;1.40;0.95;;;15.50;74.80;;;;;;5059266;28;20021;-71
2023/09/14 04:04:35;;;;;;;2.30;0.88;;;15.50;75.00;;;;;;5057126;28;20028;-72
2023/09/14 04:07:00;;;;;;;1.65;0.75;;;15.50;74.90;;;;;;5056199;28;20039;-71
2023/09/14 04:09:29;;;;;;;1.63;0.80;;;15.50;74.90;;;;;;5055421;28;20444;-71
2023/09/14 04:11:56;;;;;;;3.58;0.75;;;15.40;74.90;;;;;;5031266;28;20175;-71
2023/09/14 04:14:22;;;;;;;1.02;0.35;;;15.40;74.90;;;;;;5055073;28;20017;-71
2023/09/14 04:16:48;;;;;;;0.60;0.60;;;15.30;74.90;;;;;;5064435;28;20404;-71
2023/09/14 04:19:14;;;;;;;0.80;0.73;;;15.30;74.90;;;;;;5056553;28;20028;-72
2023/09/14 04:21:43;;;;;;;0.63;0.63;;;15.30;74.90;;;;;;5036183;28;20039;-71
2023/09/14 04:24:09;;;;;;;2.15;0.45;;;15.30;74.90;;;;;;5058875;28;20033;-71
2023/09/14 04:26:35;;;;;;;1.00;0.43;;;15.30;74.90;;;;;;5057775;28;20117;-71
2023/09/14 04:29:01;;;;;;;1.27;0.60;;;15.20;74.90;;;;;;5060592;28;20711;-71
2023/09/14 04:31:27;;;;;;;2.20;1.02;;;15.20;74.90;;;;;;5054501;28;20100;-68
2023/09/14 04:33:53;;;;;;;2.58;0.63;;;15.20;75.00;;;;;;5056159;28;20124;-68
2023/09/14 04:36:18;;;;;;;1.17;0.50;;;15.20;74.90;;;;;;5054783;28;20032;-68
2023/09/14 04:38:44;;;;;;;0.70;0.60;;;15.20;74.90;;;;;;5055505;28;20539;-68
2023/09/14 04:41:10;;;;;;;1.95;0.60;;;15.10;74.80;;;;;;5052783;28;20021;-68
2023/09/14 04:43:36;;;;;;;1.15;0.68;;;15.10;74.90;;;;;;5055996;28;20074;-67
2023/09/14 04:46:06;;;;;;;1.52;0.75;;;15.10;74.90;;;;;;5055081;28;20568;-68
2023/09/14 04:48:32;;;;;;;0.98;0.70;;;15.10;74.90;;;;;;5058048;28;20439;-67
2023/09/14 04:50:59;;;;;;;1.10;0.93;;;15.10;75.00;;;;;;5054169;28;20025;-68
2023/09/14 04:53:26;;;;;;;1.75;0.60;;;15.10;75.00;;;;;;5047431;28;20028;-68
2023/09/14 04:55:52;;;;;;;2.45;0.52;;;15.10;75.00;;;;;;5038613;28;20464;-68
2023/09/14 04:58:18;;;;;;;0.32;0.32;;;15.00;75.00;;;;;;5052790;28;20086;-68
2023/09/14 05:00:48;;;;;;;1.45;0.50;;;15.00;75.00;;;;;;5061897;28;20395;-71
2023/09/14 05:03:14;;;;;;;0.80;0.80;;;15.00;75.10;;;;;;5067323;28;20422;-68
2023/09/14 05:05:40;;;;;;;1.17;0.55;;;15.00;75.10;;;;;;5066846;28;20090;-70
2023/09/14 05:08:06;;;;;;;3.60;1.15;;;15.00;75.10;;;;;;5064863;28;20107;-68
2023/09/14 05:10:32;;;;;;;1.15;0.95;;;15.00;75.10;;;;;;5067828;28;20064;-68
2023/09/14 05:12:58;;;;;;;2.08;0.70;;;14.90;75.10;;;;;;5046571;28;20100;-67
2023/09/14 05:15:23;;;;;;;1.88;0.60;;;14.90;75.10;;;;;;5066950;28;20036;-68
2023/09/14 05:17:49;;;;;;;0.57;0.57;;;14.90;75.10;;;;;;5062745;28;20098;-67
2023/09/14 05:20:15;;;;;;;0.57;0.52;;;14.90;75.10;;;;;;5047252;28;20024;-67
2023/09/14 05:22:41;;;;;;;1.33;0.63;;;14.90;75.10;;;;;;5067222;28;20049;-67
2023/09/14 05:25:08;;;;;;;3.22;0.90;;;14.90;75.20;;;;;;5051907;28;20124;-71
2023/09/14 05:27:38;;;;;;;3.00;0.98;;;14.90;75.20;;;;;;5043900;28;20037;-71
2023/09/14 05:30:11;;;;;;;1.08;0.60;;;14.90;75.20;;;;;;5062831;28;20021;-71
2023/09/14 05:32:39;;;;;;;1.08;0.65;;;15.00;75.40;;;;;;5065488;28;20714;-71
2023/09/14 05:35:06;;;;;;;0.82;0.65;;;14.90;75.30;;;;;;5067809;28;20097;-71
2023/09/14 05:37:33;;;;;;;2.17;0.80;;;14.90;75.40;;;;;;5066671;28;20568;-71
2023/09/14 05:39:59;;;;;;;0.43;0.43;;;14.90;75.50;;;;;;5066820;28;20027;-71
2023/09/14 05:42:24;;;;;;;1.98;1.00;;;14.90;75.50;;;;;;5065780;28;20127;-71
2023/09/14 05:44:50;;;;;;;1.80;1.25;;;14.90;75.50;;;;;;5065363;28;20405;-71
2023/09/14 05:47:16;;;;;;;1.83;0.80;;;15.00;75.80;;;;;;5063092;28;20495;-71
2023/09/14 05:49:42;;;;;;;1.33;0.88;;;15.00;75.90;;;;;;5061060;28;20028;-71
2023/09/14 05:52:08;;;;;;;1.05;0.50;;;15.00;75.80;;;;;;5063032;28;20025;-71
2023/09/14 05:54:36;;;;;;;0.65;0.55;;;15.00;75.90;;;;;;5043656;28;20033;-71
2023/09/14 05:57:02;;;;;;;3.03;0.50;;;15.10;76.00;;;;;;5063701;28;20012;-71
2023/09/14 05:59:28;;;;;;;0.88;0.57;;;15.10;76.10;;;;;;5061668;28;20055;-71
2023/09/14 06:01:54;;;;;;;2.53;1.00;;;15.10;76.20;;;;;;5062974;28;20504;-71
2023/09/14 06:04:20;;;;;;;1.45;0.88;;;15.20;76.30;;;;;;5061685;28;20016;-71
2023/09/14 06:06:45;;;;;;;3.20;1.17;;;15.20;76.30;;;;;;5063767;28;20395;-70
2023/09/14 06:09:11;;;;;;;0.50;0.50;;;15.30;76.30;;;;;;5065899;28;20105;-71
2023/09/14 06:11:37;;;;;;;2.13;0.80;;;15.30;76.30;;;;;;5063112;28;20029;-71
2023/09/14 06:14:03;;;;;;;2.00;1.08;;;15.40;76.50;;;;;;5049589;28;20551;-71
2023/09/14 06:16:28;;;;;;;2.38;0.90;;;15.40;76.50;;;;;;5062797;28;20024;-71
2023/09/14 06:18:54;;;;;;;0.60;0.60;;;15.50;76.50;;;;;;5061359;28;20173;-70
2023/09/14 06:21:20;;;;;;;1.58;0.82;;;15.50;76.50;;;;;;5063367;28;20028;-71
2023/09/14 06:23:46;;;;;;;0.73;0.57;;;15.60;76.50;;;;;;5064373;28;20051;-71
2023/09/14 06:26:13;;;;;;;1.13;1.02;;;15.70;76.50;;;;;;5044526;28;20021;-71
2023/09/14 06:28:38;;;;;;;2.35;0.60;;;15.70;77.10;;;;;;5065610;28;20031;-71
2023/09/14 06:31:04;;;;;;;0.50;0.47;;;15.80;76.60;;;;;;5064199;28;20024;-71
2023/09/14 06:33:30;;;;;;;0.98;0.82;;;15.90;76.60;;;;;;5050703;28;20052;-71
2023/09/14 06:35:55;;;;;;;0.80;0.57;;;16.00;76.60;;;;;;5044458;28;20054;-71
2023/09/14 06:38:21;;;;;;;3.25;0.80;;;16.00;76.60;;;;;;5060253;28;20104;-71
2023/09/14 06:40:47;;;;;;;3.28;0.80;;;16.10;76.50;;;;;;5063424;28;20456;-71
2023/09/14 06:43:13;;;;;;;1.52;0.90;;;16.20;76.50;;;;;;5046624;28;20094;-71
2023/09/14 06:45:39;;;;;;;1.20;0.82;;;16.40;76.40;;;;;;5063358;28;20040;-71
2023/09/14 06:48:05;;;;;;;1.20;0.88;;;16.40;76.20;;;;;;5063170;28;20033;-71
2023/09/14 06:50:31;;;;;;;2.55;1.00;;;16.50;76.10;;;;;;5047523;28;20053;-71
2023/09/14 06:52:56;;;;;;;0.90;0.50;;;16.60;76.00;;;;;;5065522;28;20025;-71
2023/09/14 06:55:22;;;;;;;1.05;0.88;;;16.70;75.90;;;;;;5064630;28;20032;-71
2023/09/14 06:57:48;;;;;;;1.40;0.85;;;16.70;75.90;;;;;;5058245;28;20044;-71
2023/09/14 07:00:15;;;;;;;1.35;0.80;;;16.70;76.00;;;;;;5044903;28;20055;-71
2023/09/14 07:02:41;;;;;;;1.15;0.70;;;16.80;76.00;;;;;;5044447;28;20036;-72
2023/09/14 07:05:10;;;;;;;1.23;0.95;;;16.80;75.90;;;;;;5057107;28;20029;-72
2023/09/14 07:07:40;;;;;;;1.30;0.75;;;16.80;75.90;;;;;;5058563;28;20433;-67
2023/09/14 07:10:07;;;;;;;3.28;1.25;;;16.90;76.00;;;;;;5065934;28;20037;-68
2023/09/14 07:12:34;;;;;;;1.40;0.90;;;17.00;75.80;;;;;;5063766;28;20077;-67
2023/09/14 07:14:59;;;;;;;1.38;0.93;;;17.00;75.70;;;;;;5057627;28;20509;-68
2023/09/14 07:17:25;;;;;;;1.75;1.08;;;17.10;75.70;;;;;;5070457;28;20115;-66
2023/09/14 07:19:51;;;;;;;0.57;0.50;;;17.10;75.60;;;;;;5065424;28;20403;-68
2023/09/14 07:22:18;;;;;;;2.78;0.98;;;17.20;75.60;;;;;;5029231;28;20426;-69
2023/09/14 07:24:44;;;;;;;1.75;0.60;;;17.30;75.60;;;;;;5066943;28;20028;-67
2023/09/14 07:27:10;;;;;;;0.60;0.50;;;17.30;75.40;;;;;;5067131;28;20111;-67
2023/09/14 07:29:35;;;;;;;1.40;0.80;;;17.40;75.50;;;;;;5066752;28;20033;-67
2023/09/14 07:32:01;;;;;;;0.70;0.70;;;17.40;75.40;;;;;;5062240;28;20029;-66
2023/09/14 07:34:27;;;;;;;1.58;0.60;;;17.50;75.30;;;;;;5067805;28;20032;-71
2023/09/14 07:36:53;;;;;;;2.10;1.15;;;17.50;75.20;;;;;;5049399;28;20111;-70
2023/09/14 07:39:19;;;;;;;1.25;1.05;;;17.60;75.00;;;;;;5064941;28;20099;-71
2023/09/14 07:41:44;;;;;;;2.75;1.60;;;17.60;74.80;;;;;;5064894;28;20724;-71
2023/09/14 07:44:12;;;;;;;2.17;0.93;;;17.70;74.80;;;;;;5049312;28;20349;-71
2023/09/14 07:46:39;;;;;;;1.67;1.20;;;17.70;74.50;;;;;;5047144;28;20036;-70
2023/09/14 07:49:05;;;;;;;1.17;0.80;;;17.80;74.50;;;;;;5043363;28;20040;-70
2023/09/14 07:51:31;;;;;;;2.30;0.88;;;17.90;74.30;;;;;;5066889;28;20040;-70
2023/09/14 07:53:57;;;;;;;0.98;0.88;;;18.00;74.20;;;;;;5065058;28;20052;-71
2023/09/14 07:56:23;;;;;;;1.42;0.73;;;18.10;73.90;;;;;;5069039;28;20504;-68
2023/09/14 07:58:49;;;;;;;1.85;1.17;;;18.10;73.70;;;;;;5070379;28;20024;-68
2023/09/14 08:01:15;;;;;;;2.55;1.05;;;18.10;73.50;;;;;;5051459;28;20506;-68
2023/09/14 08:03:40;;;;;;;2.00;1.00;;;18.20;73.50;;;;;;5068376;28;20036;-71
2023/09/14 08:06:06;;;;;;;1.45;1.05;;;18.30;73.30;;;;;;5050732;28;20437;-71
2023/09/14 08:08:33;;;;;;;4.65;1.30;;;18.40;73.10;;;;;;5052367;28;20044;-69
2023/09/14 08:11:00;;;;;;;2.58;0.73;;;18.50;73.00;;;;;;5050809;28;20033;-68
2023/09/14 08:13:26;;;;;;;1.67;0.70;;;18.60;72.80;;;;;;5062226;28;20035;-69
2023/09/14 08:15:52;;;;;;;2.70;1.45;;;18.60;72.60;;;;;;5070439;28;20463;-71
2023/09/14 08:18:19;;;;;;;1.38;0.73;;;18.70;72.20;;;;;;5064419;28;20135;-71
2023/09/14 08:20:46;;;;;;;1.35;0.68;;;18.70;71.90;;;;;;5047174;28;20029;-70
2023/09/14 08:23:16;;;;;;;2.58;1.10;;;18.70;71.80;;;;;;5059033;28;20060;-71
2023/09/14 08:25:46;;;;;;;4.32;1.50;;;18.80;71.80;;;;;;5048020;28;20043;-70
2023/09/14 08:28:17;;;;;;;5.03;0.90;;;18.80;71.60;;;;;;5056235;28;20033;-71
2023/09/14 08:30:44;;;;;;;1.83;1.48;;;18.90;71.60;;;;;;5062129;28;20097;-70
2023/09/14 08:33:11;;;;;;;1.30;0.70;;;18.80;71.60;;;;;;5065323;28;20139;-71
2023/09/14 08:35:37;;;;;;;2.08;0.90;;;18.90;71.60;;;;;;5048581;28;20029;-70
2023/09/14 08:38:07;;;;;;;3.58;1.33;;;19.00;71.60;;;;;;5065241;28;20040;-70
2023/09/14 08:40:34;;;;;;;3.42;1.30;;;19.10;71.50;;;;;;5065626;28;20531;-70
2023/09/14 08:43:02;;;;;;;1.55;1.15;;;19.10;70.90;;;;;;5064294;28;20033;-70
2023/09/14 08:45:32;;;;;;;1.67;0.93;;;19.20;70.80;;;;;;5063000;28;20033;-70
2023/09/14 08:48:01;;;;;;;0.77;0.77;;;19.20;69.90;;;;;;5064717;28;20028;-70
2023/09/14 08:50:30;;;;;;;1.17;0.60;;;19.30;70.00;;;;;;5065117;28;20036;-71
2023/09/14 08:52:56;;;;;;;1.80;0.70;;;19.40;70.10;;;;;;5060178;28;20345;-70
2023/09/14 08:55:28;;;;;;;1.48;0.60;;;19.50;69.70;;;;;;5060988;28;20025;-70
2023/09/14 08:57:56;;;;;;;2.30;1.10;;;19.60;69.50;;;;;;5065581;28;20353;-70
2023/09/14 09:00:26;;;;;;;1.10;0.60;;;19.70;69.00;;;;;;5044643;28;20025;-69
2023/09/14 09:02:53;;;;;;;3.25;1.60;;;19.70;69.10;;;;;;5046394;28;20028;-69
2023/09/14 09:05:19;;;;;;;2.40;0.88;;;19.80;69.00;;;;;;5064048;28;20430;-68
2023/09/14 09:07:48;;;;;;;1.67;0.93;;;20.00;69.50;;;;;;5068504;28;20510;-69
2023/09/14 09:10:21;;;;;;;1.02;0.90;;;20.00;68.70;;;;;;5058846;28;20086;-68
2023/09/14 09:12:49;;;;;;;5.78;1.67;;;20.20;68.70;;;;;;5063147;28;20036;-68
2023/09/14 09:15:15;;;;;;;5.00;1.60;;;20.20;67.90;;;;;;5055617;28;20082;-67
2023/09/14 09:17:42;;;;;;;1.48;1.10;;;20.30;67.40;;;;;;5064120;28;20039;-71
2023/09/14 09:20:25;;;;;;;3.45;1.15;;;20.40;67.10;;;;;;5066226;28;20418;-68
2023/09/14 09:22:53;;;;;;;1.02;0.77;;;20.50;67.30;;;;;;5063261;28;20123;-68
2023/09/14 09:25:20;;;;;;;2.88;1.35;;;20.60;67.10;;;;;;5062816;28;20515;-68
2023/09/14 09:27:46;;;;;;;2.97;1.00;;;20.70;66.70;;;;;;5067821;28;20036;-68
2023/09/14 09:30:13;;;;;;;0.98;0.88;;;20.80;66.80;;;;;;5057599;28;20050;-70
2023/09/14 09:32:41;;;;;;;1.38;1.27;;;20.90;66.80;;;;;;5067566;28;20032;-68
2023/09/14 09:35:19;;;;;;;3.13;1.40;;;20.90;66.30;;;;;;5042965;28;20119;-68
2023/09/14 09:37:46;;;;;;;1.17;0.82;;;21.00;66.20;;;;;;5065281;28;20103;-68
2023/09/14 09:40:13;;;;;;;2.75;1.13;;;21.10;66.30;;;;;;5063513;28;20047;-68
2023/09/14 09:42:39;;;;;;;2.70;1.00;;;21.40;65.70;;;;;;5061961;28;20043;-68
2023/09/14 09:45:07;;;;;;;1.48;1.23;;;21.50;65.40;;;;;;5064699;28;20044;-70
2023/09/14 09:47:34;;;;;;;3.40;1.60;;;21.70;65.30;;;;;;5046361;28;20040;-68
2023/09/14 09:50:01;;;;;;;2.58;1.42;;;21.80;65.30;;;;;;5064118;28;20031;-69
2023/09/14 09:52:27;;;;;;;3.42;1.85;;;21.90;64.70;;;;;;5062162;28;20033;-68
2023/09/14 09:54:53;;;;;;;1.67;1.08;;;22.10;64.20;;;;;;5062363;28;20028;-69
2023/09/14 09:57:19;;;;;;;3.65;1.15;;;22.00;63.90;;;;;;5067201;28;20028;-68
2023/09/14 09:59:49;;;;;;;2.83;1.63;;;21.80;64.40;;;;;;5066514;28;20123;-68
2023/09/14 10:02:15;;;;;;;2.75;1.63;;;21.60;64.50;;;;;;5049651;28;20024;-69
2023/09/14 10:04:54;;;;;;;3.22;1.73;;;21.40;64.50;;;;;;5065160;28;20032;-68
2023/09/14 10:07:23;;;;;;;2.10;0.93;;;21.20;64.80;;;;;;5063259;28;20508;-68
2023/09/14 10:09:55;;;;;;;2.30;1.20;;;21.10;65.40;;;;;;5063530;28;20059;-68
2023/09/14 10:12:26;;;;;;;2.05;0.93;;;21.10;65.50;;;;;;5047232;28;20024;-68
2023/09/14 10:14:55;;;;;;;1.97;1.00;;;21.10;65.50;;;;;;5060398;28;20024;-68
2023/09/14 10:17:24;;;;;;;4.00;1.50;;;21.20;65.30;;;;;;5062769;28;20287;-68
2023/09/14 10:19:51;;;;;;;3.78;1.92;;;21.10;65.10;;;;;;5063078;28;20534;-70
2023/09/14 10:22:19;;;;;;;2.63;1.83;;;21.00;65.20;;;;;;5059688;28;20895;-68
2023/09/14 10:24:46;;;;;;;1.67;1.02;;;21.20;65.60;;;;;;5064062;28;20044;-70
2023/09/14 10:27:14;;;;;;;2.65;1.30;;;21.50;64.90;;;;;;5065623;28;20396;-70
2023/09/14 10:29:42;;;;;;;1.77;1.20;;;21.90;64.60;;;;;;5062591;28;20810;-70
2023/09/14 10:32:15;;;;;;;3.97;1.60;;;22.40;63.30;;;;;;5060237;28;20035;-71
2023/09/14 10:34:41;;;;;;;;;;;22.70;62.60;;;;;;5045419;28;20495;-67
2023/09/14 10:37:09;;;;;;;1.85;1.25;;;23.00;61.10;;;;;;5063831;28;19962;-68
2023/09/14 10:39:37;;;;;;;2.15;1.23;;;23.20;61.00;;;;;;5065776;28;20045;-68
2023/09/14 10:42:05;;;;;;;2.40;1.50;;;23.40;58.90;;;;;;5066658;28;20056;-68
2023/09/14 10:44:32;;;;;;;1.70;1.40;;;23.40;58.10;;;;;;5065906;28;20515;-68
2023/09/14 10:47:01;;;;;;;1.98;1.20;;;23.50;57.90;;;;;;5065610;28;20535;-67
2023/09/14 10:49:30;;;;;;;1.42;1.02;;;23.70;58.00;;;;;;5065274;28;20041;-68
2023/09/14 10:51:56;;;;;;;1.50;1.00;;;24.00;57.00;;;;;;5066027;28;20068;-68
2023/09/14 10:54:26;;;;;;;4.50;1.33;;;24.30;56.80;;;;;;5064914;28;20051;-68
2023/09/14 10:57:00;;;;;;;1.67;0.93;;;24.50;56.60;;;;;;5065383;28;20033;-70
2023/09/14 10:59:51;;;;;;;4.63;1.00;;;24.60;55.20;;;;;;5066016;28;20103;-70
2023/09/14 11:02:48;;;;;;;9.40;1.20;;;24.80;56.00;;;;;;5065693;28;20137;-70
2023/09/14 11:05:16;;;;;;;0.73;0.73;;;24.80;55.20;;;;;;5063218;28;20055;-68
2023/09/14 11:07:53;;;;;;;2.80;0.98;;;24.50;55.70;;;;;;5061494;28;20037;-68
2023/09/14 11:10:20;;;;;;;1.13;0.98;;;24.20;56.80;;;;;;5041888;28;20476;-68
2023/09/14 11:12:46;;;;;;;1.40;1.15;;;24.30;57.20;;;;;;5059933;28;20033;-68
2023/09/14 11:15:22;;;;;;;0.95;0.70;;;24.60;56.20;;;;;;5062813;28;20082;-69
2023/09/14 11:17:51;;;;;;;0.77;0.77;;;25.00;56.10;;;;;;5059305;28;20025;-68
2023/09/14 11:20:20;;;;;;;1.38;1.25;;;25.50;55.80;;;;;;5066188;28;20850;-71
2023/09/14 11:22:50;;;;;;;0.70;0.63;;;25.90;55.10;;;;;;5065178;28;20044;-70
2023/09/14 11:25:26;;;;;;;2.75;0.93;;;26.20;54.50;;;;;;5049833;28;20083;-70
2023/09/14 11:27:52;;;;;;;2.13;1.02;;;26.30;53.90;;;;;;5064613;28;20017;-70
2023/09/14 11:30:20;;;;;;;1.17;1.08;;;26.40;53.00;;;;;;5066220;28;20471;-70
2023/09/14 11:32:47;;;;;;;0.95;0.82;;;26.50;52.70;;;;;;5063449;28;20074;-70
2023/09/14 11:35:13;;;;;;;1.02;0.93;;;26.50;51.60;;;;;;5048833;28;20388;-70
2023/09/14 11:37:42;;;;;;;5.28;1.52;;;26.60;51.30;;;;;;5065551;28;20060;-70
2023/09/14 11:40:17;;;;;;;1.40;1.10;;;26.50;51.20;;;;;;5068464;28;20533;-69
2023/09/14 11:43:08;;;;;;;1.30;1.20;;;26.20;49.90;;;;;;5057862;28;20033;-70
2023/09/14 11:45:41;;;;;;;1.73;1.13;;;25.70;50.20;;;;;;5067401;28;20032;-70
2023/09/14 11:48:08;;;;;;;1.67;1.33;;;25.20;49.50;;;;;;5066236;28;20036;-70
2023/09/14 11:50:34;;;;;;;1.23;0.80;;;24.60;50.60;;;;;;5064877;28;20036;-68
2023/09/14 11:53:00;;;;;;;1.25;1.05;;;24.10;52.10;;;;;;5063464;28;20036;-68
2023/09/14 11:55:27;;;;;;;1.00;1.00;;;23.90;52.70;;;;;;5062492;28;20037;-67
2023/09/14 11:57:56;;;;;;;1.42;1.33;;;23.70;53.20;;;;;;5067969;28;20041;-68
2023/09/14 12:00:22;;;;;;;2.00;1.17;;;23.60;53.80;;;;;;5065037;28;20035;-68
2023/09/14 12:02:49;;;;;;;0.82;0.70;;;23.40;54.10;;;;;;5065169;28;20028;-67
2023/09/14 12:05:16;;;;;;;1.10;1.00;;;23.40;54.40;;;;;;5064855;28;20044;-70
2023/09/14 12:07:42;;;;;;;0.82;0.82;;;23.30;54.50;;;;;;5065201;28;20036;-69
2023/09/14 12:10:21;;;;;;;1.85;1.20;;;23.20;55.30;;;;;;5064200;28;20037;-70
2023/09/14 12:12:47;;;;;;;1.42;1.30;;;23.20;55.90;;;;;;5058027;28;20025;-70
2023/09/14 12:15:22;;;;;;;1.73;1.20;;;23.10;56.50;;;;;;5063324;28;20044;-68
2023/09/14 12:17:52;;;;;;;2.20;1.10;;;23.00;56.80;;;;;;5065801;28;20016;-67
2023/09/14 12:20:19;;;;;;;1.25;0.95;;;23.00;56.70;;;;;;5060702;28;20454;-68
2023/09/14 12:22:46;;;;;;;0.98;0.80;;;23.10;56.90;;;;;;5062989;28;20068;-68
2023/09/14 12:25:16;;;;;;;1.77;1.15;;;23.30;56.70;;;;;;5066414;28;20039;-68
2023/09/14 12:27:43;;;;;;;2.25;1.23;;;23.50;56.10;;;;;;5064523;28;20059;-68
2023/09/14 12:30:11;;;;;;;1.65;0.98;;;23.70;55.00;;;;;;5062260;28;20115;-68
2023/09/14 12:32:38;;;;;;;0.95;0.90;;;23.80;54.20;;;;;;5064436;28;20361;-69
2023/09/14 12:35:08;;;;;;;1.05;0.82;;;24.10;54.40;;;;;;5061792;28;20487;-70
2023/09/14 12:37:34;;;;;;;0.70;0.70;;;24.60;53.90;;;;;;5064255;28;20032;-70
2023/09/14 12:40:08;;;;;;;1.88;1.38;;;25.10;53.50;;;;;;5065445;28;21327;-70
2023/09/14 12:42:34;;;;;;;0.85;0.80;;;25.60;52.40;;;;;;5061984;28;20039;-70
2023/09/14 12:45:00;;;;;;;1.25;0.68;;;25.70;52.50;;;;;;5057157;28;20032;-70
2023/09/14 12:47:26;;;;;;;1.20;0.85;;;25.60;51.10;;;;;;5062865;28;20041;-70
2023/09/14 12:49:59;;;;;;;1.48;0.70;;;25.60;50.60;;;;;;5061334;28;20764;-70